createdAt,value
2022-12-20T00:01:34.956Z,94817.28
2022-12-20T00:04:05.632Z,94827.56
2022-12-20T00:06:35.705Z,94827.25
2022-12-20T00:09:04.656Z,94822.53
2022-12-20T00:11:31.459Z,94823.91
2022-12-20T00:13:58.991Z,94839.22
2022-12-20T00:16:28.534Z,94828.94
2022-12-20T00:18:58.257Z,94819.44
2022-12-20T00:21:25.984Z,94831.88
2022-12-20T00:23:53.940Z,94824.22
2022-12-20T00:26:24.409Z,94812.56
2022-12-20T00:28:52.839Z,94803.63
2022-12-20T00:31:22.196Z,94814.47
2022-12-20T00:33:51.101Z,94808.72
2022-12-20T00:36:19.444Z,94802.38
2022-12-20T00:38:47.517Z,94807.16
2022-12-20T00:41:20.850Z,94792.94
2022-12-20T00:43:48.024Z,94788.47
2022-12-20T00:46:15.968Z,94804.88
2022-12-20T00:48:42.891Z,94803.28
2022-12-20T00:51:12.901Z,94810.44
2022-12-20T00:53:40.144Z,94798.28
2022-12-20T00:56:07.667Z,94800.41
2022-12-20T00:58:36.775Z,94805.19
2022-12-20T01:01:05.056Z,94793.53
2022-12-20T01:03:32.053Z,94796.69
2022-12-20T01:06:01.172Z,94808.25
2022-12-20T01:08:30.259Z,94811.94
2022-12-20T01:11:06.521Z,94813.56
2022-12-20T01:13:35.183Z,94801.63
2022-12-20T01:16:20.547Z,94817.50
2022-12-20T01:18:47.961Z,94813.03
2022-12-20T01:21:16.873Z,94806.03
2022-12-20T01:23:43.804Z,94805.53
2022-12-20T01:26:16.200Z,94805.63
2022-12-20T01:28:43.796Z,94791.97
2022-12-20T01:31:13.861Z,94791.19
2022-12-20T01:33:40.872Z,94788.78
2022-12-20T01:36:12.000Z,94799.34
2022-12-20T01:38:38.690Z,94789.81
2022-12-20T01:41:05.726Z,94799.59
2022-12-20T01:43:52.686Z,94793.03
2022-12-20T01:46:22.247Z,94788.81
2022-12-20T01:48:54.217Z,94784.09
2022-12-20T01:51:22.968Z,94797.03
2022-12-20T01:53:54.544Z,94797.84
2022-12-20T01:56:21.291Z,94793.34
2022-12-20T01:58:51.763Z,94789.44
2022-12-20T02:01:18.944Z,94792.31
2022-12-20T02:03:47.203Z,94802.38
2022-12-20T02:06:18.160Z,94801.81
2022-12-20T02:08:47.995Z,94793.44
2022-12-20T02:11:23.085Z,94804.59
2022-12-20T02:14:14.581Z,94798.78
2022-12-20T02:17:04.592Z,94788.53
2022-12-20T02:20:01.931Z,94784.56
2022-12-20T02:22:31.579Z,94792.25
2022-12-20T02:25:01.039Z,94780.81
2022-12-20T02:27:30.645Z,94788.66
2022-12-20T02:30:05.348Z,94793.97
2022-12-20T02:32:54.028Z,94789.34
2022-12-20T02:35:27.574Z,94763.28
2022-12-20T02:37:57.514Z,94760.97
2022-12-20T02:40:28.788Z,94758.88
2022-12-20T02:42:59.584Z,94759.44
2022-12-20T02:45:34.704Z,94761.03
2022-12-20T02:48:07.657Z,94759.00
2022-12-20T02:50:43.781Z,94754.97
2022-12-20T02:53:10.749Z,94744.88
2022-12-20T02:56:02.065Z,94735.88
2022-12-20T02:58:49.335Z,94736.13
2022-12-20T03:01:23.391Z,94735.34
2022-12-20T03:03:51.826Z,94735.09
2022-12-20T03:06:19.274Z,94729.75
2022-12-20T03:08:46.679Z,94717.88
2022-12-20T03:11:14.301Z,94709.69
2022-12-20T03:13:41.062Z,94723.88
2022-12-20T03:16:10.846Z,94720.09
2022-12-20T03:18:39.124Z,94726.34
2022-12-20T03:21:06.175Z,94727.31
2022-12-20T03:23:33.215Z,94720.59
2022-12-20T03:25:59.955Z,94731.44
2022-12-20T03:28:33.295Z,94732.97
2022-12-20T03:31:00.173Z,94723.50
2022-12-20T03:33:27.150Z,94726.41
2022-12-20T03:35:54.285Z,94727.22
2022-12-20T03:38:21.297Z,94736.09
2022-12-20T03:40:47.989Z,94742.31
2022-12-20T03:43:18.481Z,94728.84
2022-12-20T03:45:45.183Z,94715.22
2022-12-20T03:48:11.868Z,94717.94
2022-12-20T03:50:38.605Z,94724.59
2022-12-20T03:53:05.406Z,94719.88
2022-12-20T03:55:33.994Z,94720.13
2022-12-20T03:58:00.700Z,94725.69
2022-12-20T04:00:31.979Z,94721.72
2022-12-20T04:03:18.542Z,94711.16
2022-12-20T04:05:45.353Z,94700.56
2022-12-20T04:08:12.817Z,94703.25
2022-12-20T04:11:00.160Z,94699.09
2022-12-20T04:13:31.959Z,94695.91
2022-12-20T04:16:00.896Z,94700.69
2022-12-20T04:18:31.092Z,94691.25
2022-12-20T04:21:03.860Z,94692.84
2022-12-20T04:23:32.176Z,94690.53
2022-12-20T04:25:59.123Z,94693.72
2022-12-20T04:28:26.159Z,94694.84
2022-12-20T04:30:54.597Z,94690.59
2022-12-20T04:33:27.367Z,94685.34
2022-12-20T04:35:55.366Z,94682.97
2022-12-20T04:38:24.510Z,94690.84
2022-12-20T04:40:54.987Z,94673.38
2022-12-20T04:43:23.939Z,94666.66
2022-12-20T04:45:59.048Z,94666.91
2022-12-20T04:51:15.530Z,94668.59
2022-12-20T04:53:48.530Z,94673.22
2022-12-20T04:56:44.139Z,94660.91
2022-12-20T04:59:15.486Z,94660.75
2022-12-20T05:01:45.123Z,94667.47
2022-12-20T05:04:16.891Z,94664.88
2022-12-20T05:06:43.737Z,94673.09
2022-12-20T05:09:10.687Z,94670.28
2022-12-20T05:11:38.334Z,94682.97
2022-12-20T05:14:08.131Z,94672.47
2022-12-20T05:16:34.938Z,94668.31
2022-12-20T05:19:03.403Z,94661.78
2022-12-20T05:21:51.626Z,94643.91
2022-12-20T05:24:37.227Z,94643.69
2022-12-20T05:27:14.499Z,94643.63
2022-12-20T05:29:41.489Z,94643.03
2022-12-20T05:32:09.807Z,94638.00
2022-12-20T05:34:40.230Z,94626.31
2022-12-20T05:37:07.244Z,94636.88
2022-12-20T05:39:36.405Z,94637.06
2022-12-20T05:42:09.199Z,94639.75
2022-12-20T05:44:36.904Z,94645.00
2022-12-20T05:47:03.885Z,94635.50
2022-12-20T05:49:34.606Z,94632.06
2022-12-20T05:52:03.734Z,94631.09
2022-12-20T05:54:30.629Z,94625.03
2022-12-20T05:57:05.536Z,94610.78
2022-12-20T05:59:37.945Z,94612.59
2022-12-20T06:02:07.956Z,94619.50
2022-12-20T06:04:36.239Z,94621.63
2022-12-20T06:07:09.832Z,94608.16
2022-12-20T06:09:37.352Z,94605.28
2022-12-20T06:12:07.641Z,94608.72
2022-12-20T06:14:34.843Z,94612.72
2022-12-20T06:17:02.526Z,94609.03
2022-12-20T06:19:30.831Z,94619.84
2022-12-20T06:21:58.487Z,94601.38
2022-12-20T06:24:32.077Z,94618.06
2022-12-20T06:26:58.947Z,94609.59
2022-12-20T06:29:26.758Z,94605.88
2022-12-20T06:32:05.471Z,94606.09
2022-12-20T06:34:32.924Z,94608.03
2022-12-20T06:37:00.108Z,94602.00
2022-12-20T06:39:29.993Z,94614.19
2022-12-20T06:42:02.975Z,94616.38
2022-12-20T06:44:29.739Z,94608.06
2022-12-20T06:46:56.905Z,94610.03
2022-12-20T06:49:24.093Z,94603.47
2022-12-20T06:51:51.269Z,94604.50
2022-12-20T06:54:22.477Z,94603.78
2022-12-20T06:56:50.479Z,94608.06
2022-12-20T06:59:17.213Z,94618.41
2022-12-20T07:01:44.978Z,94622.63
2022-12-20T07:04:11.776Z,94620.06
2022-12-20T07:06:38.514Z,94620.09
2022-12-20T07:09:05.247Z,94623.84
2022-12-20T07:11:32.006Z,94615.41
2022-12-20T07:13:59.218Z,94614.44
2022-12-20T07:16:26.068Z,94606.34
2022-12-20T07:18:53.988Z,94608.50
2022-12-20T07:21:21.106Z,94608.31
2022-12-20T07:23:48.006Z,94596.72
2022-12-20T07:26:15.388Z,94600.16
2022-12-20T07:28:42.983Z,94597.94
2022-12-20T07:31:09.814Z,94609.09
2022-12-20T07:33:37.389Z,94604.84
2022-12-20T07:36:10.036Z,94609.06
2022-12-20T07:38:37.350Z,94614.59
2022-12-20T07:41:12.400Z,94610.63
2022-12-20T07:43:39.721Z,94624.22
2022-12-20T07:46:08.700Z,94609.06
2022-12-20T07:48:36.189Z,94593.31
2022-12-20T07:51:10.468Z,94586.59
2022-12-20T07:53:42.492Z,94596.69
2022-12-20T07:56:11.684Z,94602.78
2022-12-20T07:58:40.785Z,94601.19
2022-12-20T08:01:09.057Z,94606.50
2022-12-20T08:03:42.482Z,94599.69
2022-12-20T08:06:09.716Z,94602.09
2022-12-20T08:08:42.549Z,94608.94
2022-12-20T08:11:10.947Z,94612.03
2022-12-20T08:13:44.268Z,94609.91
2022-12-20T08:16:12.950Z,94610.44
2022-12-20T08:18:39.709Z,94606.47
2022-12-20T08:21:06.362Z,94603.03
2022-12-20T08:23:33.081Z,94613.00
2022-12-20T08:26:03.066Z,94609.50
2022-12-20T08:28:29.877Z,94601.84
2022-12-20T08:31:04.950Z,94599.81
2022-12-20T08:33:33.354Z,94608.84
2022-12-20T08:36:02.480Z,94601.56
2022-12-20T08:38:30.987Z,94599.50
2022-12-20T08:41:05.759Z,94618.25
2022-12-20T08:43:33.995Z,94613.00
2022-12-20T08:46:00.917Z,94610.91
2022-12-20T08:48:28.554Z,94611.72
2022-12-20T08:51:04.271Z,94608.59
2022-12-20T08:53:31.891Z,94609.19
2022-12-20T08:56:04.767Z,94606.75
2022-12-20T08:58:32.158Z,94600.16
2022-12-20T09:01:06.405Z,94593.84
2022-12-20T09:03:34.975Z,94584.09
2022-12-20T09:06:06.764Z,94598.63
2022-12-20T09:08:37.106Z,94597.59
2022-12-20T09:11:09.908Z,94595.75
2022-12-20T09:13:43.142Z,94580.47
2022-12-20T09:16:12.320Z,94585.00
2022-12-20T09:18:39.053Z,94576.31
2022-12-20T09:21:07.948Z,94583.19
2022-12-20T09:23:36.758Z,94579.16
2022-12-20T09:26:08.906Z,94556.88
2022-12-20T09:28:35.625Z,94561.72
2022-12-20T09:31:04.113Z,94576.22
2022-12-20T09:33:33.247Z,94570.91
2022-12-20T09:36:00.956Z,94573.72
2022-12-20T09:38:28.995Z,94568.25
2022-12-20T09:41:03.926Z,94575.19
2022-12-20T09:43:32.004Z,94577.34
2022-12-20T09:46:00.958Z,94572.06
2022-12-20T09:48:35.538Z,94562.03
2022-12-20T09:51:12.606Z,94569.16
2022-12-20T09:54:00.650Z,94561.56
2022-12-20T09:56:35.940Z,94561.09
2022-12-20T09:59:12.702Z,94557.75
2022-12-20T10:01:44.909Z,94548.09
2022-12-20T10:04:27.474Z,94548.19
2022-12-20T10:07:06.480Z,94528.63
2022-12-20T10:09:45.425Z,94532.41
2022-12-20T10:12:21.040Z,94542.94
2022-12-20T10:15:19.718Z,94539.03
2022-12-20T10:18:22.213Z,94536.53
2022-12-20T10:21:07.150Z,94531.47
2022-12-20T10:23:42.840Z,94515.41
2022-12-20T10:26:11.154Z,94523.44
2022-12-20T10:28:38.591Z,94510.00
2022-12-20T10:31:11.242Z,94507.19
2022-12-20T10:33:38.013Z,94501.88
2022-12-20T10:36:21.517Z,94499.94
2022-12-20T10:38:51.767Z,94492.28
2022-12-20T10:41:22.906Z,94495.28
2022-12-20T10:43:56.345Z,94486.63
2022-12-20T10:46:24.396Z,94479.53
2022-12-20T10:48:51.682Z,94482.47
2022-12-20T10:51:22.013Z,94485.72
2022-12-20T10:53:58.152Z,94481.84
2022-12-20T10:56:34.205Z,94473.78
2022-12-20T10:59:27.071Z,94467.84
2022-12-20T11:01:53.937Z,94470.41
2022-12-20T11:04:36.020Z,94461.28
2022-12-20T11:07:24.921Z,94464.63
2022-12-20T11:09:58.302Z,94454.88
2022-12-20T11:12:25.133Z,94446.47
2022-12-20T11:15:08.730Z,94448.00
2022-12-20T11:17:47.403Z,94443.84
2022-12-20T11:20:27.910Z,94434.69
2022-12-20T11:23:28.451Z,94448.72
2022-12-20T11:26:25.491Z,94448.63
2022-12-20T11:28:59.145Z,94431.31
2022-12-20T11:32:04.009Z,94448.66
2022-12-20T11:35:06.085Z,94435.00
2022-12-20T11:37:56.558Z,94428.13
2022-12-20T11:40:31.802Z,94433.06
2022-12-20T11:43:27.895Z,94423.78
2022-12-20T11:46:00.516Z,94422.50
2022-12-20T11:48:55.047Z,94422.50
2022-12-20T11:51:30.211Z,94414.00
2022-12-20T11:54:09.224Z,94416.94
2022-12-20T11:56:43.956Z,94412.09
2022-12-20T11:59:20.563Z,94406.34
2022-12-20T12:01:53.725Z,94402.16
2022-12-20T12:04:26.215Z,94396.63
2022-12-20T12:07:22.219Z,94399.97
2022-12-20T12:10:16.922Z,94405.25
2022-12-20T12:12:46.764Z,94404.13
2022-12-20T12:15:17.259Z,94384.06
2022-12-20T12:17:49.895Z,94382.09
2022-12-20T12:20:48.674Z,94372.47
2022-12-20T12:23:34.656Z,94377.38
2022-12-20T12:26:07.175Z,94381.97
2022-12-20T12:28:34.435Z,94388.97
2022-12-20T12:31:07.821Z,94382.31
2022-12-20T12:33:43.380Z,94388.00
2022-12-20T12:36:36.756Z,94378.13
2022-12-20T12:39:20.166Z,94379.47
2022-12-20T12:42:01.629Z,94374.50
2022-12-20T12:44:35.978Z,94361.75
2022-12-20T12:47:15.911Z,94364.44
2022-12-20T12:49:48.362Z,94369.22
2022-12-20T12:52:35.909Z,94383.06
2022-12-20T12:55:03.384Z,94366.47
2022-12-20T12:57:58.859Z,94361.34
2022-12-20T13:00:56.470Z,94350.75
2022-12-20T13:03:54.028Z,94353.09
2022-12-20T13:06:23.851Z,94345.31
2022-12-20T13:09:16.100Z,94354.94
2022-12-20T13:11:47.105Z,94347.50
2022-12-20T13:14:18.938Z,94349.91
2022-12-20T13:17:11.332Z,94355.38
2022-12-20T13:19:36.620Z,94353.28
2022-12-20T13:22:06.300Z,94345.56
2022-12-20T13:24:48.410Z,94329.22
2022-12-20T13:27:39.305Z,94326.94
2022-12-20T13:30:10.368Z,94325.81
2022-12-20T13:32:49.475Z,94350.88
2022-12-20T13:35:25.449Z,94351.66
2022-12-20T13:38:25.231Z,94334.22
2022-12-20T13:41:00.403Z,94350.88
2022-12-20T13:43:36.397Z,94336.00
2022-12-20T13:46:09.077Z,94345.72
2022-12-20T13:48:38.552Z,94335.06
2022-12-20T13:51:08.185Z,94341.00
2022-12-20T13:53:35.821Z,94351.94
2022-12-20T13:56:49.411Z,94341.38
2022-12-20T13:59:28.021Z,94343.06
2022-12-20T14:01:57.834Z,94337.44
2022-12-20T14:04:39.353Z,94337.50
2022-12-20T14:07:06.442Z,94338.41
2022-12-20T14:09:38.198Z,94331.53
2022-12-20T14:12:11.627Z,94327.97
2022-12-20T14:14:43.462Z,94337.94
2022-12-20T14:17:19.723Z,94337.75
2022-12-20T14:19:46.446Z,94334.03
2022-12-20T14:22:13.857Z,94324.47
2022-12-20T14:24:44.233Z,94324.03
2022-12-20T14:27:14.185Z,94320.72
2022-12-20T14:29:41.720Z,94323.06
2022-12-20T14:32:18.567Z,94304.97
2022-12-20T14:34:46.552Z,94306.88
2022-12-20T14:37:34.917Z,94305.47
2022-12-20T14:40:17.871Z,94300.19
2022-12-20T14:42:45.885Z,94312.38
2022-12-20T14:45:18.403Z,94310.28
2022-12-20T14:48:01.938Z,94312.38
2022-12-20T14:50:34.587Z,94310.72
2022-12-20T14:53:03.097Z,94308.88
2022-12-20T14:55:36.647Z,94300.13
2022-12-20T14:58:24.480Z,94306.69
2022-12-20T15:01:22.199Z,94306.47
2022-12-20T15:03:51.588Z,94296.16
2022-12-20T15:06:52.628Z,94305.66
2022-12-20T15:09:19.611Z,94307.47
2022-12-20T15:11:47.523Z,94308.38
2022-12-20T15:14:36.681Z,94297.31
2022-12-20T15:17:10.608Z,94299.31
2022-12-20T15:19:42.284Z,94297.84
2022-12-20T15:22:15.826Z,94304.69
2022-12-20T15:24:43.399Z,94294.50
2022-12-20T15:27:14.658Z,94287.88
2022-12-20T15:29:42.321Z,94292.59
2022-12-20T15:32:29.775Z,94287.75
2022-12-20T15:34:56.837Z,94292.31
2022-12-20T15:37:23.479Z,94292.13
2022-12-20T15:39:50.082Z,94290.91
2022-12-20T15:42:19.903Z,94287.81
2022-12-20T15:44:47.017Z,94299.66
2022-12-20T15:47:14.277Z,94307.56
2022-12-20T15:49:46.165Z,94294.34
2022-12-20T15:52:22.030Z,94280.03
2022-12-20T15:54:49.044Z,94270.41
2022-12-20T15:57:16.136Z,94271.22
2022-12-20T16:02:38.621Z,94292.44
2022-12-20T16:05:06.051Z,94295.09
2022-12-20T16:07:32.702Z,94300.66
2022-12-20T16:09:59.312Z,94301.25
2022-12-20T16:12:30.041Z,94299.22
2022-12-20T16:14:56.970Z,94297.78
2022-12-20T16:17:24.102Z,94301.06
2022-12-20T16:19:50.750Z,94285.44
2022-12-20T16:22:20.295Z,94269.28
2022-12-20T16:24:47.020Z,94284.63
2022-12-20T16:27:14.073Z,94279.34
2022-12-20T16:29:41.654Z,94283.00
2022-12-20T16:32:16.614Z,94284.00
2022-12-20T16:34:43.880Z,94288.75
2022-12-20T16:37:11.870Z,94288.47
2022-12-20T16:39:38.544Z,94291.31
2022-12-20T16:42:13.657Z,94297.13
2022-12-20T16:44:42.789Z,94296.91
2022-12-20T16:47:09.968Z,94276.28
2022-12-20T16:49:36.896Z,94280.50
2022-12-20T16:52:05.947Z,94285.50
2022-12-20T16:54:32.555Z,94300.63
2022-12-20T16:56:59.206Z,94297.34
2022-12-20T16:59:26.195Z,94287.53
2022-12-20T17:01:55.898Z,94287.69
2022-12-20T17:04:24.083Z,94281.50
2022-12-20T17:06:50.866Z,94269.19
2022-12-20T17:09:18.769Z,94278.38
2022-12-20T17:11:45.537Z,94285.66
2022-12-20T17:14:13.601Z,94285.31
2022-12-20T17:16:41.563Z,94280.28
2022-12-20T17:19:10.879Z,94280.56
2022-12-20T17:24:26.808Z,94278.41
2022-12-20T17:26:53.401Z,94270.47
2022-12-20T17:29:20.616Z,94266.16
2022-12-20T17:31:48.162Z,94264.50
2022-12-20T17:34:18.723Z,94264.13
2022-12-20T17:36:46.447Z,94256.72
2022-12-20T17:39:13.487Z,94257.16
2022-12-20T17:41:42.565Z,94260.69
2022-12-20T17:44:35.390Z,94249.13
2022-12-20T17:47:01.983Z,94251.19
2022-12-20T17:49:28.642Z,94252.25
2022-12-20T17:51:56.294Z,94251.78
2022-12-20T17:54:25.723Z,94265.63
2022-12-20T17:56:53.775Z,94258.75
2022-12-20T17:59:22.389Z,94244.97
2022-12-20T18:01:49.485Z,94239.72
2022-12-20T18:04:16.932Z,94241.41
2022-12-20T18:06:45.569Z,94243.28
2022-12-20T18:09:17.611Z,94238.84
2022-12-20T18:11:44.820Z,94234.69
2022-12-20T18:14:12.136Z,94236.84
2022-12-20T18:16:41.894Z,94248.84
2022-12-20T18:19:16.681Z,94236.94
2022-12-20T18:21:43.298Z,94240.19
2022-12-20T18:24:11.789Z,94245.00
2022-12-20T18:26:38.580Z,94245.31
2022-12-20T18:29:05.355Z,94232.59
2022-12-20T18:31:34.509Z,94223.56
2022-12-20T18:34:02.044Z,94220.13
2022-12-20T18:36:30.874Z,94208.50
2022-12-20T18:38:59.653Z,94216.47
2022-12-20T18:41:29.713Z,94214.31
2022-12-20T18:43:58.729Z,94227.59
2022-12-20T18:46:25.734Z,94225.78
2022-12-20T18:48:55.024Z,94220.78
2022-12-20T18:51:36.528Z,94221.75
2022-12-20T18:54:05.812Z,94234.72
2022-12-20T18:56:35.787Z,94224.47
2022-12-20T18:59:10.702Z,94222.09
2022-12-20T19:01:39.543Z,94215.00
2022-12-20T19:04:07.846Z,94214.22
2022-12-20T19:06:34.895Z,94219.81
2022-12-20T19:09:04.985Z,94224.34
2022-12-20T19:11:32.031Z,94223.53
2022-12-20T19:13:58.693Z,94206.34
2022-12-20T19:16:32.354Z,94219.59
2022-12-20T19:19:00.869Z,94223.53
2022-12-20T19:21:29.728Z,94219.09
2022-12-20T19:23:59.581Z,94212.03
2022-12-20T19:26:27.793Z,94209.88
2022-12-20T19:28:54.800Z,94211.75
2022-12-20T19:31:23.955Z,94222.94
2022-12-20T19:33:53.151Z,94214.47
2022-12-20T19:36:47.131Z,94209.16
2022-12-20T19:39:22.356Z,94200.34
2022-12-20T19:42:21.730Z,94203.00
2022-12-20T19:44:37.279Z,94203.09
2022-12-20T19:47:06.820Z,94203.59
2022-12-20T19:49:35.533Z,94203.09
2022-12-20T19:52:02.429Z,94203.09
2022-12-20T19:54:29.076Z,94207.63
2022-12-20T19:56:55.710Z,94204.69
2022-12-20T19:59:22.303Z,94202.53
2022-12-20T20:01:49.329Z,94202.03
2022-12-20T20:04:16.404Z,94188.19
2022-12-20T20:06:43.085Z,94186.81
2022-12-20T20:09:09.711Z,94192.34
2022-12-20T20:11:36.469Z,94185.94
2022-12-20T20:14:03.983Z,94187.03
2022-12-20T20:16:30.778Z,94188.03
2022-12-20T20:18:58.000Z,94191.47
2022-12-20T20:21:24.806Z,94191.66
2022-12-20T20:23:52.891Z,94186.03
2022-12-20T20:26:26.052Z,94189.69
2022-12-20T20:28:53.152Z,94186.47
2022-12-20T20:31:21.297Z,94178.22
2022-12-20T20:33:48.235Z,94190.63
2022-12-20T20:36:20.835Z,94187.84
2022-12-20T20:38:48.096Z,94198.19
2022-12-20T20:41:15.127Z,94193.88
2022-12-20T20:43:42.928Z,94205.28
2022-12-20T20:46:12.121Z,94202.03
2022-12-20T20:48:39.569Z,94201.25
2022-12-20T20:51:06.738Z,94204.69
2022-12-20T20:53:34.607Z,94201.94
2022-12-20T20:56:05.779Z,94205.41
2022-12-20T20:58:33.484Z,94199.00
2022-12-20T21:01:02.213Z,94209.84
2022-12-20T21:03:30.475Z,94204.63
2022-12-20T21:08:45.032Z,94215.66
2022-12-20T21:11:12.412Z,94209.94
2022-12-20T21:13:39.369Z,94204.03
2022-12-20T21:16:20.739Z,94206.81
2022-12-20T21:18:58.472Z,94206.22
2022-12-20T21:21:26.460Z,94203.22
2022-12-20T21:23:54.556Z,94205.44
2022-12-20T21:26:22.606Z,94194.31
2022-12-20T21:28:49.406Z,94203.81
2022-12-20T21:31:19.291Z,94206.56
2022-12-20T21:33:46.328Z,94196.66
2022-12-20T21:36:16.678Z,94194.94
2022-12-20T21:38:51.063Z,94198.47
2022-12-20T21:41:19.225Z,94198.47
2022-12-20T21:43:46.168Z,94203.50
2022-12-20T21:46:13.150Z,94205.53
2022-12-20T21:48:42.323Z,94196.78
2022-12-20T21:51:14.320Z,94201.53
2022-12-20T21:53:51.755Z,94197.72
2022-12-20T21:56:19.963Z,94203.53
2022-12-20T21:58:47.581Z,94206.69
2022-12-20T22:01:18.774Z,94196.88
2022-12-20T22:03:45.785Z,94207.06
2022-12-20T22:06:12.589Z,94197.81
2022-12-20T22:08:39.615Z,94193.41
2022-12-20T22:11:12.137Z,94210.72
2022-12-20T22:13:41.997Z,94208.16
2022-12-20T22:16:15.417Z,94208.38
2022-12-20T22:18:43.586Z,94208.38
2022-12-20T22:21:13.111Z,94204.22
2022-12-20T22:23:40.798Z,94207.56
2022-12-20T22:26:10.706Z,94208.94
2022-12-20T22:28:38.886Z,94213.16
2022-12-20T22:31:08.554Z,94209.72
2022-12-20T22:33:36.024Z,94205.59
2022-12-20T22:36:03.326Z,94201.06
2022-12-20T22:38:30.050Z,94204.59
2022-12-20T22:41:10.783Z,94208.94
2022-12-20T22:43:38.792Z,94207.63
2022-12-20T22:46:05.739Z,94208.06
2022-12-20T22:48:32.741Z,94207.53
2022-12-20T22:51:05.726Z,94211.00
2022-12-20T22:53:34.058Z,94211.66
2022-12-20T22:56:01.261Z,94216.94
2022-12-20T22:58:28.685Z,94213.34
2022-12-20T23:01:00.352Z,94211.56
2022-12-20T23:03:28.452Z,94202.09
2022-12-20T23:05:58.090Z,94211.69
2022-12-20T23:08:26.973Z,94216.50
2022-12-20T23:11:12.419Z,94217.44
2022-12-20T23:13:58.681Z,94216.41
2022-12-20T23:16:25.589Z,94202.38
2022-12-20T23:18:56.745Z,94193.16
2022-12-20T23:21:44.220Z,94189.63
2022-12-20T23:24:11.979Z,94184.09
2022-12-20T23:26:39.635Z,94188.50
2022-12-20T23:29:07.750Z,94183.31
2022-12-20T23:31:34.783Z,94170.91
2022-12-20T23:34:02.256Z,94176.56
2022-12-20T23:36:29.495Z,94177.72
2022-12-20T23:38:56.897Z,94178.47
2022-12-20T23:41:23.755Z,94176.28
2022-12-20T23:43:50.533Z,94166.69
2022-12-20T23:46:19.335Z,94169.63
2022-12-20T23:48:46.204Z,94163.53
2022-12-20T23:51:13.132Z,94170.19
2022-12-20T23:53:39.780Z,94172.84
2022-12-20T23:56:15.437Z,94167.06
2022-12-20T23:58:43.426Z,94173.06
